createdAt,value
2018-12-19T00:00:31.967Z,0.00
2018-12-19T00:01:31.951Z,0.00
2018-12-19T00:02:31.948Z,0.00
2018-12-19T00:03:31.946Z,0.00
2018-12-19T00:04:31.952Z,0.00
2018-12-19T00:05:31.914Z,0.00
2018-12-19T00:06:31.897Z,0.00
2018-12-19T00:07:32.338Z,0.00
2018-12-19T00:08:31.883Z,0.00
2018-12-19T00:09:31.884Z,0.00
2018-12-19T00:10:31.878Z,0.00
2018-12-19T00:11:31.852Z,0.00
2018-12-19T00:12:31.854Z,0.00
2018-12-19T00:13:31.836Z,0.00
2018-12-19T00:14:31.837Z,0.00
2018-12-19T00:15:31.827Z,0.00
2018-12-19T00:16:31.813Z,0.00
2018-12-19T00:17:31.788Z,0.00
2018-12-19T00:18:31.781Z,0.00
2018-12-19T00:19:31.789Z,0.00
2018-12-19T00:20:31.753Z,0.00
2018-12-19T00:21:31.756Z,0.00
2018-12-19T00:22:31.739Z,0.00
2018-12-19T00:23:31.723Z,0.00
2018-12-19T00:24:31.785Z,0.00
2018-12-19T00:25:31.701Z,0.00
2018-12-19T00:26:31.693Z,0.00
2018-12-19T00:27:31.805Z,0.00
2018-12-19T00:28:31.739Z,0.00
2018-12-19T00:29:31.665Z,0.00
2018-12-19T00:30:31.674Z,0.00
2018-12-19T00:31:31.641Z,0.00
2018-12-19T00:32:31.651Z,0.00
2018-12-19T00:33:31.630Z,0.00
2018-12-19T00:34:31.612Z,0.00
2018-12-19T00:35:31.618Z,0.00
2018-12-19T00:36:31.594Z,0.00
2018-12-19T00:37:31.627Z,0.00
2018-12-19T00:38:31.572Z,0.00
2018-12-19T00:39:31.568Z,0.00
2018-12-19T00:40:31.563Z,0.00
2018-12-19T00:41:31.539Z,0.00
2018-12-19T00:42:31.527Z,0.00
2018-12-19T00:43:31.541Z,0.00
2018-12-19T00:44:31.505Z,0.00
2018-12-19T00:45:31.512Z,0.00
2018-12-19T00:46:31.485Z,0.00
2018-12-19T00:47:31.473Z,0.00
2018-12-19T00:48:31.486Z,0.00
2018-12-19T00:49:31.456Z,0.00
2018-12-19T00:50:31.463Z,0.00
2018-12-19T00:51:31.436Z,0.00
2018-12-19T00:52:31.420Z,0.00
2018-12-19T00:53:31.421Z,0.00
2018-12-19T00:54:31.428Z,0.00
2018-12-19T00:55:31.425Z,0.00
2018-12-19T00:56:31.387Z,0.00
2018-12-19T00:57:31.375Z,0.00
2018-12-19T00:58:31.356Z,0.00
2018-12-19T00:59:31.346Z,0.00
2018-12-19T01:00:31.364Z,0.00
2018-12-19T01:01:31.327Z,0.00
2018-12-19T01:02:31.326Z,0.00
2018-12-19T01:03:31.312Z,0.00
2018-12-19T01:04:31.298Z,0.00
2018-12-19T01:05:31.328Z,0.00
2018-12-19T01:06:31.274Z,0.00
2018-12-19T01:07:31.276Z,0.00
2018-12-19T01:08:31.276Z,0.00
2018-12-19T01:09:31.257Z,0.00
2018-12-19T01:10:31.234Z,0.00
2018-12-19T01:11:31.248Z,0.00
2018-12-19T01:12:31.210Z,0.00
2018-12-19T01:13:31.207Z,0.00
2018-12-19T01:14:31.202Z,0.00
2018-12-19T01:15:31.194Z,0.00
2018-12-19T01:16:31.207Z,0.00
2018-12-19T01:17:31.164Z,0.00
2018-12-19T01:18:31.173Z,0.00
2018-12-19T01:19:31.141Z,0.00
2018-12-19T01:20:31.146Z,0.00
2018-12-19T01:21:31.146Z,0.00
2018-12-19T01:22:31.107Z,0.00
2018-12-19T01:23:31.116Z,0.00
2018-12-19T01:24:31.086Z,0.00
2018-12-19T01:25:31.084Z,0.00
2018-12-19T01:26:31.075Z,0.00
2018-12-19T01:27:31.082Z,0.00
2018-12-19T01:28:31.048Z,0.00
2018-12-19T01:29:31.044Z,0.00
2018-12-19T01:30:31.022Z,0.00
2018-12-19T01:31:31.018Z,0.00
2018-12-19T01:32:31.623Z,0.00
2018-12-19T01:33:30.995Z,0.00
2018-12-19T01:34:30.985Z,0.00
2018-12-19T01:35:30.972Z,0.00
2018-12-19T01:36:30.962Z,0.00
2018-12-19T01:37:30.974Z,0.00
2018-12-19T01:38:30.945Z,0.00
2018-12-19T01:39:30.930Z,0.00
2018-12-19T01:40:30.919Z,0.00
2018-12-19T01:41:30.911Z,0.00
2018-12-19T01:42:30.925Z,0.00
2018-12-19T01:43:30.902Z,0.00
2018-12-19T01:44:30.884Z,0.00
2018-12-19T01:45:30.871Z,0.00
2018-12-19T01:46:30.858Z,0.00
2018-12-19T01:47:30.874Z,0.00
2018-12-19T01:48:30.843Z,0.00
2018-12-19T01:49:30.849Z,0.00
2018-12-19T01:50:30.816Z,0.00
2018-12-19T01:51:30.810Z,0.00
2018-12-19T01:52:30.794Z,0.00
2018-12-19T01:53:30.798Z,0.00
2018-12-19T01:54:30.790Z,0.00
2018-12-19T01:55:30.770Z,0.00
2018-12-19T01:56:30.760Z,0.00
2018-12-19T01:57:30.738Z,0.00
2018-12-19T01:58:30.754Z,0.00
2018-12-19T01:59:30.742Z,0.00
2018-12-19T02:00:30.724Z,0.00
2018-12-19T02:01:30.703Z,0.00
2018-12-19T02:02:30.698Z,0.00
2018-12-19T02:03:30.681Z,0.00
2018-12-19T02:04:30.710Z,0.00
2018-12-19T02:05:30.659Z,0.00
2018-12-19T02:06:30.654Z,0.00
2018-12-19T02:07:30.640Z,0.00
2018-12-19T02:08:30.629Z,0.00
2018-12-19T02:09:30.616Z,0.00
2018-12-19T02:10:30.626Z,0.00
2018-12-19T02:11:30.597Z,0.00
2018-12-19T02:12:30.594Z,0.00
2018-12-19T02:13:30.598Z,0.00
2018-12-19T02:14:30.570Z,0.00
2018-12-19T02:15:30.559Z,0.00
2018-12-19T02:16:30.540Z,0.00
2018-12-19T02:17:30.536Z,0.00
2018-12-19T02:18:30.544Z,0.00
2018-12-19T02:19:30.519Z,0.00
2018-12-19T02:20:30.522Z,0.00
2018-12-19T02:21:30.498Z,0.00
2018-12-19T02:22:30.479Z,0.00
2018-12-19T02:23:30.477Z,0.00
2018-12-19T02:24:30.487Z,0.00
2018-12-19T02:25:30.455Z,0.00
2018-12-19T02:26:30.454Z,0.00
2018-12-19T02:27:30.431Z,0.00
2018-12-19T02:28:30.414Z,0.00
2018-12-19T02:29:30.444Z,0.00
2018-12-19T02:30:30.398Z,0.00
2018-12-19T02:31:30.388Z,0.00
2018-12-19T02:32:30.374Z,0.00
2018-12-19T02:33:30.369Z,0.00
2018-12-19T02:34:30.373Z,0.00
2018-12-19T02:35:30.352Z,0.00
2018-12-19T02:36:30.336Z,0.00
2018-12-19T02:37:30.327Z,0.00
2018-12-19T02:38:30.314Z,0.00
2018-12-19T02:39:36.105Z,0.00
2018-12-19T02:40:31.298Z,0.00
2018-12-19T02:41:30.295Z,0.00
2018-12-19T02:42:30.271Z,0.00
2018-12-19T02:43:30.263Z,0.00
2018-12-19T02:44:30.272Z,0.00
2018-12-19T02:45:30.256Z,0.00
2018-12-19T02:46:30.234Z,0.00
2018-12-19T02:47:30.231Z,0.00
2018-12-19T02:48:30.212Z,0.00
2018-12-19T02:49:30.198Z,0.00
2018-12-19T02:50:30.214Z,0.00
2018-12-19T02:51:30.179Z,0.00
2018-12-19T02:52:30.172Z,0.00
2018-12-19T02:53:30.164Z,0.00
2018-12-19T02:54:30.144Z,0.00
2018-12-19T02:55:30.157Z,0.00
2018-12-19T02:56:30.130Z,0.00
2018-12-19T02:57:30.122Z,0.00
2018-12-19T02:58:30.109Z,0.00
2018-12-19T02:59:30.107Z,0.00
2018-12-19T03:00:30.119Z,0.00
2018-12-19T03:01:30.076Z,0.00
2018-12-19T03:02:30.062Z,0.00
2018-12-19T03:03:30.054Z,0.00
2018-12-19T03:04:30.054Z,0.00
2018-12-19T03:05:30.050Z,0.00
2018-12-19T03:06:30.037Z,0.00
2018-12-19T03:07:30.036Z,0.00
2018-12-19T03:08:30.000Z,0.00
2018-12-19T03:09:29.985Z,0.00
2018-12-19T03:10:29.998Z,0.00
2018-12-19T03:11:29.989Z,0.00
2018-12-19T03:12:29.955Z,0.00
2018-12-19T03:13:29.965Z,0.00
2018-12-19T03:14:29.974Z,0.00
2018-12-19T03:15:29.924Z,0.00
2018-12-19T03:16:29.937Z,0.00
2018-12-19T03:17:29.905Z,0.00
2018-12-19T03:18:29.897Z,0.00
2018-12-19T03:19:29.898Z,0.00
2018-12-19T03:20:29.902Z,0.00
2018-12-19T03:21:29.877Z,0.00
2018-12-19T03:22:29.857Z,0.00
2018-12-19T03:23:29.841Z,0.00
2018-12-19T03:24:29.841Z,0.00
2018-12-19T03:25:29.821Z,0.00
2018-12-19T03:26:29.848Z,0.00
2018-12-19T03:27:29.803Z,0.00
2018-12-19T03:28:29.796Z,0.00
2018-12-19T03:29:29.783Z,0.00
2018-12-19T03:30:29.784Z,0.00
2018-12-19T03:31:29.786Z,0.00
2018-12-19T03:32:29.749Z,0.00
2018-12-19T03:33:29.745Z,0.00
2018-12-19T03:34:29.727Z,0.00
2018-12-19T03:35:29.715Z,0.00
2018-12-19T03:36:29.726Z,0.00
2018-12-19T03:37:29.694Z,0.00
2018-12-19T03:38:29.692Z,0.00
2018-12-19T03:39:29.680Z,0.00
2018-12-19T03:40:29.664Z,0.00
2018-12-19T03:41:29.668Z,0.00
2018-12-19T03:42:29.646Z,0.00
2018-12-19T03:43:29.640Z,0.00
2018-12-19T03:44:29.636Z,0.00
2018-12-19T03:45:29.622Z,0.00
2018-12-19T03:46:29.620Z,0.00
2018-12-19T03:47:29.592Z,0.00
2018-12-19T03:48:29.590Z,0.00
2018-12-19T03:49:29.582Z,0.00
2018-12-19T03:50:29.558Z,0.00
2018-12-19T03:51:29.574Z,0.00
2018-12-19T03:52:29.544Z,0.00
2018-12-19T03:53:29.524Z,0.00
2018-12-19T03:54:29.526Z,0.00
2018-12-19T03:55:29.514Z,0.00
2018-12-19T03:56:29.538Z,0.00
2018-12-19T03:57:29.490Z,0.00
2018-12-19T03:58:29.482Z,0.00
2018-12-19T03:59:29.466Z,0.00
2018-12-19T04:00:29.460Z,0.00
2018-12-19T04:01:29.485Z,0.00
2018-12-19T04:02:29.440Z,0.00
2018-12-19T04:03:29.428Z,0.00
2018-12-19T04:04:29.415Z,0.00
2018-12-19T04:05:29.408Z,0.00
2018-12-19T04:06:29.402Z,0.00
2018-12-19T04:07:29.410Z,0.00
2018-12-19T04:08:29.386Z,0.00
2018-12-19T04:09:29.360Z,0.00
2018-12-19T04:10:29.353Z,0.00
2018-12-19T04:11:29.349Z,0.00
2018-12-19T04:12:29.357Z,0.00
2018-12-19T04:13:29.322Z,0.00
2018-12-19T04:14:29.332Z,0.00
2018-12-19T04:15:29.297Z,0.00
2018-12-19T04:16:29.324Z,0.00
2018-12-19T04:17:29.303Z,0.00
2018-12-19T04:18:29.273Z,0.00
2018-12-19T04:19:29.259Z,0.00
2018-12-19T04:20:29.257Z,0.00
2018-12-19T04:21:29.242Z,0.00
2018-12-19T04:22:36.496Z,0.00
2018-12-19T04:23:29.223Z,0.00
2018-12-19T04:24:29.222Z,0.00
2018-12-19T04:25:29.200Z,0.00
2018-12-19T04:26:29.191Z,0.00
2018-12-19T04:27:29.221Z,0.00
2018-12-19T04:28:29.159Z,0.00
2018-12-19T04:29:29.159Z,0.00
2018-12-19T04:30:29.151Z,0.00
2018-12-19T04:31:29.132Z,0.00
2018-12-19T04:32:29.131Z,0.00
2018-12-19T04:33:29.202Z,0.00
2018-12-19T04:34:29.103Z,0.00
2018-12-19T04:35:29.092Z,0.00
2018-12-19T04:36:29.079Z,0.00
2018-12-19T04:37:29.073Z,0.00
2018-12-19T04:38:29.078Z,0.00
2018-12-19T04:39:29.047Z,0.00
2018-12-19T04:40:29.037Z,0.00
2018-12-19T04:41:29.032Z,0.00
2018-12-19T04:42:29.018Z,0.00
2018-12-19T04:43:29.053Z,0.00
2018-12-19T04:44:29.005Z,0.00
2018-12-19T04:45:28.992Z,0.00
2018-12-19T04:46:29.023Z,0.00
2018-12-19T04:47:28.971Z,0.00
2018-12-19T04:48:28.976Z,0.00
2018-12-19T04:49:28.946Z,0.00
2018-12-19T04:50:28.937Z,0.00
2018-12-19T04:51:28.925Z,0.00
2018-12-19T04:52:28.916Z,0.00
2018-12-19T04:53:28.921Z,0.00
2018-12-19T04:54:28.891Z,0.00
2018-12-19T04:55:28.885Z,0.00
2018-12-19T04:56:28.872Z,0.00
2018-12-19T04:57:28.864Z,0.00
2018-12-19T04:58:28.881Z,0.00
2018-12-19T04:59:28.853Z,0.00
2018-12-19T05:00:28.837Z,0.00
2018-12-19T05:01:28.823Z,0.00
2018-12-19T05:02:28.808Z,0.00
2018-12-19T05:03:28.817Z,0.00
2018-12-19T05:04:28.792Z,0.00
2018-12-19T05:05:28.784Z,0.00
2018-12-19T05:06:28.770Z,0.00
2018-12-19T05:07:28.764Z,0.00
2018-12-19T05:08:28.770Z,0.00
2018-12-19T05:09:28.752Z,0.00
2018-12-19T05:10:28.844Z,0.00
2018-12-19T05:11:28.720Z,0.00
2018-12-19T05:12:28.705Z,0.00
2018-12-19T05:13:28.716Z,0.00
2018-12-19T05:14:28.679Z,0.00
2018-12-19T05:15:28.671Z,0.00
2018-12-19T05:16:28.671Z,0.00
2018-12-19T05:17:28.662Z,0.00
2018-12-19T05:18:28.673Z,0.00
2018-12-19T05:19:28.642Z,0.00
2018-12-19T05:20:28.620Z,0.00
2018-12-19T05:21:28.606Z,0.00
2018-12-19T05:22:28.610Z,0.00
2018-12-19T05:23:28.620Z,0.00
2018-12-19T05:24:28.583Z,0.00
2018-12-19T05:25:28.566Z,0.00
2018-12-19T05:26:28.558Z,0.00
2018-12-19T05:27:28.548Z,0.00
2018-12-19T05:28:28.576Z,0.00
2018-12-19T05:29:28.528Z,0.00
2018-12-19T05:30:28.524Z,0.00
2018-12-19T05:31:28.509Z,0.00
2018-12-19T05:32:28.554Z,0.00
2018-12-19T05:33:28.515Z,0.00
2018-12-19T05:34:28.483Z,0.00
2018-12-19T05:35:28.462Z,0.00
2018-12-19T05:36:28.456Z,0.00
2018-12-19T05:37:28.441Z,0.00
2018-12-19T05:38:28.433Z,0.00
2018-12-19T05:39:28.581Z,0.00
2018-12-19T05:40:28.416Z,0.00
2018-12-19T05:41:28.402Z,0.00
2018-12-19T05:42:28.401Z,0.00
2018-12-19T05:43:28.414Z,0.00
2018-12-19T05:44:28.394Z,0.00
2018-12-19T05:45:28.358Z,0.00
2018-12-19T05:46:28.357Z,0.00
2018-12-19T05:47:28.338Z,0.00
2018-12-19T05:48:28.334Z,0.00
2018-12-19T05:49:28.341Z,0.00
2018-12-19T05:50:28.311Z,0.00
2018-12-19T05:51:28.296Z,0.00
2018-12-19T05:52:28.293Z,0.00
2018-12-19T05:53:28.276Z,0.00
2018-12-19T05:54:28.287Z,0.00
2018-12-19T05:55:28.259Z,0.00
2018-12-19T05:56:28.258Z,0.00
2018-12-19T05:57:28.237Z,0.00
2018-12-19T05:58:28.234Z,0.00
2018-12-19T05:59:28.233Z,0.00
2018-12-19T06:00:28.206Z,0.00
2018-12-19T06:01:28.214Z,0.00
2018-12-19T06:02:28.191Z,0.00
2018-12-19T06:03:28.182Z,0.00
2018-12-19T06:04:28.170Z,0.00
2018-12-19T06:05:28.154Z,0.00
2018-12-19T06:06:28.157Z,0.00
2018-12-19T06:07:28.130Z,0.00
2018-12-19T06:08:28.122Z,0.00
2018-12-19T06:09:28.117Z,0.00
2018-12-19T06:10:28.128Z,0.00
2018-12-19T06:11:28.089Z,0.00
2018-12-19T06:12:28.082Z,0.00
2018-12-19T06:13:28.067Z,0.00
2018-12-19T06:14:28.054Z,0.00
2018-12-19T06:15:28.062Z,0.00
2018-12-19T06:16:28.054Z,0.00
2018-12-19T06:17:28.038Z,0.00
2018-12-19T06:18:28.022Z,0.00
2018-12-19T06:19:28.005Z,0.00
2018-12-19T06:20:27.991Z,0.00
2018-12-19T06:21:28.148Z,0.00
2018-12-19T06:22:27.982Z,0.00
2018-12-19T06:23:27.967Z,0.00
2018-12-19T06:24:27.950Z,0.00
2018-12-19T06:25:27.945Z,0.00
2018-12-19T06:26:28.403Z,0.00
2018-12-19T06:27:27.924Z,0.00
2018-12-19T06:28:27.930Z,0.00
2018-12-19T06:29:27.898Z,0.00
2018-12-19T06:30:27.902Z,0.00
2018-12-19T06:31:27.938Z,0.00
2018-12-19T06:32:27.866Z,0.00
2018-12-19T06:33:27.862Z,0.00
2018-12-19T06:34:35.909Z,0.00
2018-12-19T06:35:27.879Z,0.00
2018-12-19T06:36:27.860Z,0.00
2018-12-19T06:37:27.816Z,0.00
2018-12-19T06:38:27.810Z,0.00
2018-12-19T06:39:27.792Z,0.00
2018-12-19T06:40:32.651Z,0.00
2018-12-19T06:41:28.792Z,0.00
2018-12-19T06:42:27.766Z,0.00
2018-12-19T06:43:27.752Z,0.00
2018-12-19T06:44:27.746Z,0.00
2018-12-19T06:45:27.736Z,0.00
2018-12-19T06:46:27.750Z,0.00
2018-12-19T06:47:27.707Z,0.00
2018-12-19T06:48:27.702Z,0.00
2018-12-19T06:49:27.697Z,0.00
2018-12-19T06:50:27.674Z,0.00
2018-12-19T06:51:27.680Z,0.00
2018-12-19T06:52:27.667Z,0.00
2018-12-19T06:53:27.701Z,0.00
2018-12-19T06:54:27.636Z,0.00
2018-12-19T06:55:27.634Z,0.00
2018-12-19T06:56:27.639Z,0.00
2018-12-19T06:57:27.618Z,0.00
2018-12-19T06:58:27.603Z,0.00
2018-12-19T06:59:27.586Z,0.00
2018-12-19T07:00:27.573Z,0.00
2018-12-19T07:01:27.571Z,0.00
2018-12-19T07:02:27.564Z,0.00
2018-12-19T07:03:27.560Z,0.00
2018-12-19T07:04:27.536Z,0.00
2018-12-19T07:05:27.532Z,0.00
2018-12-19T07:06:27.505Z,0.00
2018-12-19T07:07:27.521Z,0.00
2018-12-19T07:08:27.493Z,0.00
2018-12-19T07:09:27.492Z,0.00
2018-12-19T07:10:27.464Z,0.00
2018-12-19T07:11:27.460Z,0.00
2018-12-19T07:12:27.468Z,5.62
2018-12-19T07:13:27.694Z,5.62
2018-12-19T07:14:27.438Z,5.62
2018-12-19T07:15:27.445Z,5.62
2018-12-19T07:16:27.464Z,5.62
2018-12-19T07:17:27.440Z,5.62
2018-12-19T07:18:27.381Z,5.62
2018-12-19T07:19:27.393Z,5.62
2018-12-19T07:20:27.374Z,5.62
2018-12-19T07:21:27.362Z,5.62
2018-12-19T07:22:27.344Z,5.62
2018-12-19T07:23:27.346Z,5.62
2018-12-19T07:24:27.320Z,5.62
2018-12-19T07:25:27.308Z,5.62
2018-12-19T07:26:27.312Z,5.62
2018-12-19T07:27:27.302Z,11.25
2018-12-19T07:28:27.318Z,11.25
2018-12-19T07:29:27.272Z,11.25
2018-12-19T07:30:27.258Z,11.25
2018-12-19T07:31:27.244Z,11.25
2018-12-19T07:32:27.254Z,11.25
2018-12-19T07:33:27.291Z,11.25
2018-12-19T07:34:27.217Z,16.88
2018-12-19T07:35:27.209Z,16.88
2018-12-19T07:36:27.223Z,16.88
2018-12-19T07:37:27.195Z,16.88
2018-12-19T07:38:27.190Z,16.88
2018-12-19T07:39:27.169Z,16.88
2018-12-19T07:40:27.154Z,22.50
2018-12-19T07:41:34.950Z,22.50
2018-12-19T07:42:27.148Z,22.50
2018-12-19T07:43:27.151Z,22.50
2018-12-19T07:44:27.122Z,22.50
2018-12-19T07:45:27.103Z,28.12
2018-12-19T07:46:27.104Z,28.12
2018-12-19T07:47:27.080Z,28.12
2018-12-19T07:48:27.094Z,28.12
2018-12-19T07:49:27.069Z,28.12
2018-12-19T07:50:27.099Z,33.75
2018-12-19T07:51:27.039Z,33.75
2018-12-19T07:52:27.356Z,33.75
2018-12-19T07:53:27.040Z,33.75
2018-12-19T07:54:27.034Z,33.75
2018-12-19T07:55:27.007Z,33.75
2018-12-19T07:56:26.994Z,39.38
2018-12-19T07:57:26.976Z,39.38
2018-12-19T07:58:26.970Z,39.38
2018-12-19T07:59:26.981Z,39.38
2018-12-19T08:00:27.542Z,39.38
2018-12-19T08:01:26.947Z,39.38
2018-12-19T08:02:26.938Z,39.38
2018-12-19T08:03:26.916Z,45.00
2018-12-19T08:04:27.904Z,45.00
2018-12-19T08:05:26.995Z,45.00
2018-12-19T08:06:26.881Z,45.00
2018-12-19T08:07:26.880Z,45.00
2018-12-19T08:08:26.874Z,50.62
2018-12-19T08:09:26.887Z,50.62
2018-12-19T08:10:26.842Z,50.62
2018-12-19T08:11:26.831Z,50.62
2018-12-19T08:12:27.064Z,50.62
2018-12-19T08:13:26.812Z,50.62
2018-12-19T08:14:26.826Z,50.62
2018-12-19T08:15:27.056Z,56.25
2018-12-19T08:16:26.784Z,56.25
2018-12-19T08:17:26.817Z,56.25
2018-12-19T08:18:26.785Z,56.25
2018-12-19T08:19:26.980Z,56.25
2018-12-19T08:20:26.764Z,56.25
2018-12-19T08:21:26.724Z,56.25
2018-12-19T08:22:26.714Z,56.25
2018-12-19T08:23:26.708Z,56.25
2018-12-19T08:24:26.723Z,56.25
2018-12-19T08:25:26.692Z,56.25
2018-12-19T08:26:26.676Z,56.25
2018-12-19T08:27:26.662Z,56.25
2018-12-19T08:28:26.651Z,56.25
2018-12-19T08:29:26.675Z,56.25
2018-12-19T08:30:26.630Z,56.25
2018-12-19T08:31:27.452Z,56.25
2018-12-19T08:32:26.664Z,56.25
2018-12-19T08:33:26.597Z,56.25
2018-12-19T08:34:26.609Z,56.25
2018-12-19T08:35:26.586Z,61.88
2018-12-19T08:36:26.570Z,61.88
2018-12-19T08:37:26.567Z,61.88
2018-12-19T08:38:26.607Z,61.88
2018-12-19T08:39:26.551Z,67.50
2018-12-19T08:40:26.523Z,67.50
2018-12-19T08:41:26.537Z,67.50
2018-12-19T08:42:26.565Z,73.12
2018-12-19T08:43:26.522Z,73.12
2018-12-19T08:44:26.479Z,73.12
2018-12-19T08:45:26.523Z,73.12
2018-12-19T08:46:26.462Z,73.12
2018-12-19T08:47:26.452Z,73.12
2018-12-19T08:48:26.449Z,78.75
2018-12-19T08:49:26.435Z,78.75
2018-12-19T08:50:26.429Z,78.75
2018-12-19T08:51:26.409Z,78.75
2018-12-19T08:52:26.403Z,78.75
2018-12-19T08:53:26.973Z,78.75
2018-12-19T08:54:26.381Z,78.75
2018-12-19T08:55:26.389Z,78.75
2018-12-19T08:56:26.360Z,78.75
2018-12-19T08:57:26.344Z,73.12
2018-12-19T08:58:26.353Z,73.12
2018-12-19T08:59:26.327Z,73.12
2018-12-19T09:00:26.332Z,73.12
2018-12-19T09:01:26.340Z,73.12
2018-12-19T09:02:26.287Z,73.12
2018-12-19T09:03:26.281Z,73.12
2018-12-19T09:04:26.269Z,73.12
2018-12-19T09:05:26.265Z,67.50
2018-12-19T09:06:26.273Z,67.50
2018-12-19T09:07:26.235Z,67.50
2018-12-19T09:08:26.229Z,73.12
2018-12-19T09:09:26.215Z,73.12
2018-12-19T09:10:26.206Z,73.12
2018-12-19T09:11:26.217Z,73.12
2018-12-19T09:12:26.210Z,78.75
2018-12-19T09:13:26.169Z,78.75
2018-12-19T09:14:26.169Z,84.38
2018-12-19T09:15:27.775Z,84.38
2018-12-19T09:16:26.165Z,84.38
2018-12-19T09:17:26.150Z,84.38
2018-12-19T09:18:26.126Z,84.38
2018-12-19T09:19:26.135Z,84.38
2018-12-19T09:20:26.102Z,84.38
2018-12-19T09:21:26.111Z,84.38
2018-12-19T09:22:26.101Z,90.00
2018-12-19T09:23:26.077Z,90.00
2018-12-19T09:24:26.063Z,90.00
2018-12-19T09:25:26.042Z,90.00
2018-12-19T09:26:26.062Z,90.00
2018-12-19T09:27:26.023Z,90.00
2018-12-19T09:28:26.019Z,90.00
2018-12-19T09:29:26.033Z,90.00
2018-12-19T09:30:26.005Z,90.00
2018-12-19T09:31:26.063Z,90.00
2018-12-19T09:32:25.980Z,90.00
2018-12-19T09:33:27.604Z,90.00
2018-12-19T09:34:25.984Z,90.00
2018-12-19T09:35:25.950Z,90.00
2018-12-19T09:36:25.948Z,90.00
2018-12-19T09:37:25.974Z,90.00
2018-12-19T09:38:25.911Z,90.00
2018-12-19T09:39:25.938Z,95.62
2018-12-19T09:40:25.927Z,95.62
2018-12-19T09:41:25.888Z,95.62
2018-12-19T09:42:25.894Z,101.25
2018-12-19T09:43:25.856Z,101.25
2018-12-19T09:44:25.848Z,101.25
2018-12-19T09:45:25.837Z,101.25
2018-12-19T09:46:25.831Z,101.25
2018-12-19T09:47:25.838Z,101.25
2018-12-19T09:48:25.803Z,101.25
2018-12-19T09:49:25.798Z,106.88
2018-12-19T09:50:25.783Z,112.50
2018-12-19T09:51:25.774Z,112.50
2018-12-19T09:52:25.776Z,118.12
2018-12-19T09:53:25.757Z,118.12
2018-12-19T09:54:25.740Z,118.12
2018-12-19T09:55:25.746Z,118.12
2018-12-19T09:56:25.722Z,118.12
2018-12-19T09:57:25.787Z,123.75
2018-12-19T09:58:25.722Z,123.75
2018-12-19T09:59:25.699Z,123.75
2018-12-19T10:00:25.699Z,123.75
2018-12-19T10:01:25.668Z,123.75
2018-12-19T10:02:25.652Z,123.75
2018-12-19T10:03:25.657Z,123.75
2018-12-19T10:04:25.649Z,123.75
2018-12-19T10:05:25.635Z,123.75
2018-12-19T10:06:25.619Z,129.38
2018-12-19T10:07:25.606Z,129.38
2018-12-19T10:08:25.622Z,129.38
2018-12-19T10:09:25.598Z,129.38
2018-12-19T10:10:25.602Z,129.38
2018-12-19T10:11:25.573Z,129.38
2018-12-19T10:12:25.570Z,129.38
2018-12-19T10:13:25.546Z,135.00
2018-12-19T10:14:25.549Z,129.38
2018-12-19T10:15:25.534Z,135.00
2018-12-19T10:16:25.509Z,135.00
2018-12-19T10:17:25.510Z,135.00
2018-12-19T10:18:25.512Z,140.62
2018-12-19T10:19:25.471Z,140.62
2018-12-19T10:20:25.488Z,140.62
2018-12-19T10:21:25.457Z,140.62
2018-12-19T10:22:25.451Z,140.62
2018-12-19T10:23:25.433Z,146.25
2018-12-19T10:24:25.476Z,146.25
2018-12-19T10:25:25.412Z,146.25
2018-12-19T10:26:25.412Z,151.88
2018-12-19T10:27:25.395Z,151.88
2018-12-19T10:28:25.389Z,151.88
2018-12-19T10:29:25.390Z,151.88
2018-12-19T10:30:25.362Z,151.88
2018-12-19T10:31:25.354Z,151.88
2018-12-19T10:32:25.347Z,151.88
2018-12-19T10:33:25.359Z,151.88
2018-12-19T10:34:25.343Z,151.88
2018-12-19T10:35:25.302Z,157.50
2018-12-19T10:36:25.299Z,151.88
2018-12-19T10:37:25.291Z,151.88
2018-12-19T10:38:25.274Z,151.88
2018-12-19T10:39:25.298Z,151.88
2018-12-19T10:40:25.270Z,146.25
2018-12-19T10:41:25.684Z,146.25
2018-12-19T10:42:25.248Z,146.25
2018-12-19T10:43:25.225Z,146.25
2018-12-19T10:44:25.233Z,146.25
2018-12-19T10:45:25.203Z,140.62
2018-12-19T10:46:25.190Z,140.62
2018-12-19T10:47:25.184Z,140.62
2018-12-19T10:48:25.175Z,146.25
2018-12-19T10:49:25.221Z,151.88
2018-12-19T10:50:25.177Z,151.88
2018-12-19T10:51:25.171Z,157.50
2018-12-19T10:52:25.140Z,157.50
2018-12-19T10:53:25.121Z,157.50
2018-12-19T10:54:25.131Z,157.50
2018-12-19T10:55:25.104Z,157.50
2018-12-19T10:56:25.109Z,157.50
2018-12-19T10:57:25.077Z,157.50
2018-12-19T10:58:25.078Z,157.50
2018-12-19T10:59:25.079Z,157.50
2018-12-19T11:00:25.042Z,163.12
2018-12-19T11:01:25.043Z,168.75
2018-12-19T11:02:25.026Z,174.38
2018-12-19T11:03:25.019Z,185.62
2018-12-19T11:04:25.036Z,196.88
2018-12-19T11:05:24.999Z,202.50
2018-12-19T11:06:25.005Z,208.12
2018-12-19T11:07:24.981Z,208.12
2018-12-19T11:08:24.963Z,208.12
2018-12-19T11:09:24.959Z,208.12
2018-12-19T11:10:24.957Z,202.50
2018-12-19T11:11:24.930Z,208.12
2018-12-19T11:12:24.919Z,208.12
2018-12-19T11:13:24.915Z,208.12
2018-12-19T11:14:24.924Z,208.12
2018-12-19T11:15:24.899Z,208.12
2018-12-19T11:16:24.880Z,202.50
2018-12-19T11:17:24.871Z,196.88
2018-12-19T11:18:24.862Z,191.25
2018-12-19T11:19:24.853Z,191.25
2018-12-19T11:20:24.875Z,185.62
2018-12-19T11:21:24.843Z,185.62
2018-12-19T11:22:24.808Z,168.75
2018-12-19T11:23:24.813Z,163.12
2018-12-19T11:24:24.796Z,157.50
2018-12-19T11:25:24.805Z,151.88
2018-12-19T11:26:24.773Z,146.25
2018-12-19T11:27:24.779Z,140.62
2018-12-19T11:28:24.749Z,135.00
2018-12-19T11:29:24.736Z,129.38
2018-12-19T11:30:24.738Z,129.38
2018-12-19T11:31:24.740Z,123.75
2018-12-19T11:32:24.705Z,123.75
2018-12-19T11:33:24.707Z,118.12
2018-12-19T11:34:24.689Z,106.88
2018-12-19T11:35:24.677Z,101.25
2018-12-19T11:36:24.679Z,95.62
2018-12-19T11:37:24.671Z,95.62
2018-12-19T11:38:24.679Z,95.62
2018-12-19T11:39:24.635Z,95.62
2018-12-19T11:40:24.632Z,95.62
2018-12-19T11:41:24.633Z,95.62
2018-12-19T11:42:24.603Z,101.25
2018-12-19T11:43:24.607Z,106.88
2018-12-19T11:44:24.581Z,118.12
2018-12-19T11:45:24.571Z,123.75
2018-12-19T11:46:24.595Z,118.12
2018-12-19T11:47:24.587Z,118.12
2018-12-19T11:48:24.539Z,106.88
2018-12-19T11:49:24.525Z,106.88
2018-12-19T11:50:24.519Z,112.50
2018-12-19T11:51:24.513Z,112.50
2018-12-19T11:52:24.518Z,112.50
2018-12-19T11:53:24.491Z,112.50
2018-12-19T11:54:24.477Z,123.75
2018-12-19T11:55:24.467Z,135.00
2018-12-19T11:56:24.498Z,135.00
2018-12-19T11:57:24.473Z,129.38
2018-12-19T11:58:24.441Z,112.50
2018-12-19T11:59:24.439Z,112.50
2018-12-19T12:00:24.421Z,118.12
2018-12-19T12:01:24.399Z,140.62
2018-12-19T12:02:24.407Z,151.88
2018-12-19T12:03:24.391Z,163.12
2018-12-19T12:04:24.369Z,163.12
2018-12-19T12:05:24.365Z,163.12
2018-12-19T12:06:24.347Z,163.12
2018-12-19T12:07:24.370Z,157.50
2018-12-19T12:08:24.335Z,151.88
2018-12-19T12:09:24.351Z,140.62
2018-12-19T12:10:24.308Z,135.00
2018-12-19T12:11:24.297Z,129.38
2018-12-19T12:12:24.305Z,129.38
2018-12-19T12:13:24.274Z,129.38
2018-12-19T12:14:24.284Z,135.00
2018-12-19T12:15:24.274Z,135.00
2018-12-19T12:16:24.239Z,140.62
2018-12-19T12:18:25.399Z,146.25
2018-12-19T12:19:24.208Z,146.25
2018-12-19T12:20:24.211Z,146.25
2018-12-19T12:21:24.189Z,140.62
2018-12-19T12:22:24.197Z,140.62
2018-12-19T12:23:24.176Z,135.00
2018-12-19T12:24:24.183Z,129.38
2018-12-19T12:25:24.171Z,123.75
2018-12-19T12:26:24.155Z,123.75
2018-12-19T12:27:24.160Z,123.75
2018-12-19T12:28:24.156Z,118.12
2018-12-19T12:29:24.106Z,112.50
2018-12-19T12:30:24.100Z,106.88
2018-12-19T12:31:24.097Z,106.88
2018-12-19T12:32:24.107Z,106.88
2018-12-19T12:33:24.067Z,101.25
2018-12-19T12:34:24.057Z,101.25
2018-12-19T12:35:24.061Z,106.88
2018-12-19T12:36:24.030Z,112.50
2018-12-19T12:37:24.116Z,112.50
2018-12-19T12:38:24.020Z,118.12
2018-12-19T12:39:24.002Z,118.12
2018-12-19T12:40:24.008Z,118.12
2018-12-19T12:41:24.000Z,118.12
2018-12-19T12:42:24.000Z,118.12
2018-12-19T12:43:24.012Z,118.12
2018-12-19T12:44:23.971Z,118.12
2018-12-19T12:45:23.949Z,112.50
2018-12-19T12:46:23.944Z,112.50
2018-12-19T12:47:23.922Z,106.88
2018-12-19T12:48:23.973Z,112.50
2018-12-19T12:49:23.903Z,112.50
2018-12-19T12:50:23.890Z,112.50
2018-12-19T12:51:23.878Z,112.50
2018-12-19T12:52:23.872Z,106.88
2018-12-19T12:53:23.883Z,106.88
2018-12-19T12:54:23.846Z,101.25
2018-12-19T12:55:23.853Z,101.25
2018-12-19T12:56:23.832Z,101.25
2018-12-19T12:57:23.817Z,101.25
2018-12-19T12:58:23.824Z,90.00
2018-12-19T12:59:23.787Z,90.00
2018-12-19T13:00:23.778Z,90.00
2018-12-19T13:01:23.771Z,90.00
2018-12-19T13:02:23.758Z,90.00